createdAt,value
2022-11-13T00:00:40.654Z,9.72
2022-11-13T00:01:40.630Z,9.64
2022-11-13T00:02:40.668Z,9.66
2022-11-13T00:03:40.576Z,9.62
2022-11-13T00:04:40.558Z,9.63
2022-11-13T00:05:40.530Z,9.63
2022-11-13T00:06:40.618Z,9.59
2022-11-13T00:07:40.476Z,9.55
2022-11-13T00:08:40.450Z,9.63
2022-11-13T00:09:40.425Z,9.62
2022-11-13T00:10:40.397Z,9.59
2022-11-13T00:11:40.376Z,9.62
2022-11-13T00:12:40.347Z,9.58
2022-11-13T00:13:40.323Z,9.58
2022-11-13T00:14:40.295Z,9.67
2022-11-13T00:15:40.384Z,9.66
2022-11-13T00:16:40.245Z,9.66
2022-11-13T00:17:40.219Z,9.64
2022-11-13T00:18:40.193Z,9.59
2022-11-13T00:19:40.169Z,9.62
2022-11-13T00:20:40.139Z,9.58
2022-11-13T00:21:40.117Z,9.62
2022-11-13T00:22:40.089Z,9.59
2022-11-13T00:23:40.063Z,9.56
2022-11-13T00:24:40.038Z,9.49
2022-11-13T00:25:40.018Z,9.49
2022-11-13T00:26:39.985Z,9.51
2022-11-13T00:27:39.962Z,9.45
2022-11-13T00:28:39.934Z,9.42
2022-11-13T00:29:39.909Z,9.36
2022-11-13T00:30:39.887Z,9.26
2022-11-13T00:31:39.972Z,9.21
2022-11-13T00:32:39.831Z,9.33
2022-11-13T00:34:14.173Z,9.21
2022-11-13T00:34:48.424Z,9.24
2022-11-13T00:35:39.756Z,9.24
2022-11-13T00:36:39.732Z,9.24
2022-11-13T00:37:39.703Z,9.34
2022-11-13T00:38:39.673Z,9.31
2022-11-13T00:39:39.652Z,9.24
2022-11-13T00:40:39.624Z,9.26
2022-11-13T00:41:39.600Z,9.21
2022-11-13T00:42:39.572Z,9.26
2022-11-13T00:43:39.548Z,9.31
2022-11-13T00:44:39.521Z,9.24
2022-11-13T00:45:39.496Z,9.22
2022-11-13T00:46:39.465Z,9.18
2022-11-13T00:47:39.553Z,9.16
2022-11-13T00:48:39.418Z,9.18
2022-11-13T00:49:39.394Z,9.03
2022-11-13T00:50:39.363Z,9.02
2022-11-13T00:51:39.340Z,9.13
2022-11-13T00:52:39.311Z,9.05
2022-11-13T00:53:39.290Z,9.09
2022-11-13T00:54:39.258Z,9.05
2022-11-13T00:55:39.236Z,9.12
2022-11-13T00:56:39.210Z,9.12
2022-11-13T00:57:39.183Z,9.19
2022-11-13T00:58:39.153Z,9.05
2022-11-13T00:59:39.130Z,9.13
2022-11-13T01:00:39.102Z,9.09
2022-11-13T01:01:39.150Z,9.02
2022-11-13T01:02:39.050Z,9.11
2022-11-13T01:03:39.142Z,9.12
2022-11-13T01:04:39.000Z,9.03
2022-11-13T01:05:38.976Z,9.11
2022-11-13T01:06:39.009Z,9.03
2022-11-13T01:07:38.922Z,9.08
2022-11-13T01:08:38.895Z,9.02
2022-11-13T01:09:38.870Z,8.97
2022-11-13T01:10:38.843Z,9.00
2022-11-13T01:11:38.818Z,8.96
2022-11-13T01:12:38.790Z,8.89
2022-11-13T01:13:38.763Z,8.90
2022-11-13T01:14:38.735Z,8.86
2022-11-13T01:15:39.045Z,8.79
2022-11-13T01:16:38.687Z,8.86
2022-11-13T01:17:38.661Z,8.89
2022-11-13T01:18:38.630Z,8.92
2022-11-13T01:19:38.718Z,8.87
2022-11-13T01:20:38.578Z,8.90
2022-11-13T01:21:38.553Z,8.97
2022-11-13T01:22:38.525Z,9.00
2022-11-13T01:23:38.504Z,8.99
2022-11-13T01:24:38.477Z,9.03
2022-11-13T01:25:38.449Z,8.93
2022-11-13T01:26:38.421Z,8.90
2022-11-13T01:27:38.395Z,8.90
2022-11-13T01:28:38.369Z,8.89
2022-11-13T01:29:38.343Z,8.95
2022-11-13T01:30:38.320Z,8.90
2022-11-13T01:31:38.298Z,8.77
2022-11-13T01:32:38.266Z,8.81
2022-11-13T01:33:38.242Z,8.75
2022-11-13T01:34:38.213Z,8.86
2022-11-13T01:35:38.298Z,8.89
2022-11-13T01:36:38.162Z,8.90
2022-11-13T01:37:38.135Z,8.89
2022-11-13T01:38:38.497Z,8.87
2022-11-13T01:39:38.087Z,8.89
2022-11-13T01:40:38.052Z,8.87
2022-11-13T01:41:38.030Z,8.81
2022-11-13T01:42:38.003Z,8.89
2022-11-13T01:43:37.974Z,8.77
2022-11-13T01:44:37.951Z,8.72
2022-11-13T01:45:37.924Z,8.78
2022-11-13T01:46:37.895Z,8.75
2022-11-13T01:47:37.870Z,8.72
2022-11-13T01:48:37.847Z,8.72
2022-11-13T01:49:37.817Z,8.64
2022-11-13T01:50:37.792Z,8.60
2022-11-13T01:51:37.879Z,8.52
2022-11-13T01:52:37.737Z,8.57
2022-11-13T01:53:37.712Z,8.44
2022-11-13T01:54:37.683Z,8.57
2022-11-13T01:55:37.660Z,8.66
2022-11-13T01:56:37.633Z,8.63
2022-11-13T01:57:37.611Z,8.68
2022-11-13T01:58:37.581Z,8.71
2022-11-13T01:59:37.551Z,8.63
2022-11-13T02:00:37.527Z,8.61
2022-11-13T02:01:37.587Z,8.61
2022-11-13T02:02:37.471Z,8.57
2022-11-13T02:03:37.453Z,8.46
2022-11-13T02:04:37.422Z,8.46
2022-11-13T02:05:37.396Z,8.46
2022-11-13T02:06:37.403Z,8.54
2022-11-13T02:07:37.455Z,8.56
2022-11-13T02:08:37.314Z,8.64
2022-11-13T02:09:37.294Z,8.64
2022-11-13T02:10:37.259Z,8.63
2022-11-13T02:11:37.237Z,8.46
2022-11-13T02:12:37.208Z,8.45
2022-11-13T02:13:37.184Z,8.57
2022-11-13T02:14:37.157Z,8.61
2022-11-13T02:15:37.131Z,8.56
2022-11-13T02:16:37.103Z,8.44
2022-11-13T02:17:37.079Z,8.49
2022-11-13T02:18:37.048Z,8.52
2022-11-13T02:19:37.025Z,8.53
2022-11-13T02:20:36.996Z,8.50
2022-11-13T02:21:36.970Z,8.44
2022-11-13T02:22:36.943Z,8.46
2022-11-13T02:23:37.030Z,8.45
2022-11-13T02:24:38.113Z,8.49
2022-11-13T02:25:36.868Z,8.53
2022-11-13T02:26:36.835Z,8.50
2022-11-13T02:27:36.813Z,8.50
2022-11-13T02:28:36.791Z,8.45
2022-11-13T02:29:36.759Z,8.42
2022-11-13T02:30:36.731Z,8.45
2022-11-13T02:31:36.705Z,8.52
2022-11-13T02:32:36.678Z,8.46
2022-11-13T02:33:36.654Z,8.63
2022-11-13T02:34:36.624Z,8.59
2022-11-13T02:35:36.603Z,8.64
2022-11-13T02:36:36.574Z,8.63
2022-11-13T02:37:36.550Z,8.68
2022-11-13T02:38:36.519Z,8.72
2022-11-13T02:39:36.615Z,8.69
2022-11-13T02:40:36.468Z,8.61
2022-11-13T02:41:36.446Z,8.59
2022-11-13T02:42:36.414Z,8.57
2022-11-13T02:43:36.392Z,8.60
2022-11-13T02:44:36.363Z,8.54
2022-11-13T02:45:36.338Z,8.54
2022-11-13T02:46:36.310Z,8.46
2022-11-13T02:47:36.285Z,8.42
2022-11-13T02:48:36.256Z,8.41
2022-11-13T02:49:36.232Z,8.46
2022-11-13T02:50:36.204Z,8.49
2022-11-13T02:51:36.179Z,8.60
2022-11-13T02:52:36.194Z,8.59
2022-11-13T02:53:36.128Z,8.57
2022-11-13T02:54:36.095Z,8.57
2022-11-13T02:55:36.185Z,8.63
2022-11-13T02:56:36.042Z,8.63
2022-11-13T02:57:36.018Z,8.59
2022-11-13T02:58:35.987Z,8.59
2022-11-13T02:59:35.964Z,8.52
2022-11-13T03:00:35.937Z,8.45
2022-11-13T03:01:35.956Z,8.54
2022-11-13T03:02:35.881Z,8.50
2022-11-13T03:05:05.353Z,8.42
2022-11-13T03:05:35.806Z,8.50
2022-11-13T03:06:35.776Z,8.38
2022-11-13T03:07:35.754Z,8.39
2022-11-13T03:08:36.642Z,8.35
2022-11-13T03:09:35.697Z,8.35
2022-11-13T03:10:35.670Z,8.32
2022-11-13T03:11:35.761Z,8.32
2022-11-13T03:12:35.619Z,8.32
2022-11-13T03:13:35.594Z,8.31
2022-11-13T03:14:35.564Z,8.21
2022-11-13T03:15:35.540Z,8.20
2022-11-13T03:16:35.510Z,8.27
2022-11-13T03:17:35.490Z,8.26
2022-11-13T03:18:35.456Z,8.31
2022-11-13T03:19:35.430Z,8.17
2022-11-13T03:20:35.406Z,8.20
2022-11-13T03:21:35.378Z,8.18
2022-11-13T03:22:35.349Z,8.13
2022-11-13T03:23:35.323Z,8.13
2022-11-13T03:24:35.295Z,8.11
2022-11-13T03:25:35.272Z,8.20
2022-11-13T03:26:35.242Z,8.09
2022-11-13T03:27:35.329Z,8.17
2022-11-13T03:28:35.188Z,8.16
2022-11-13T03:29:35.163Z,8.13
2022-11-13T03:30:35.133Z,8.17
2022-11-13T03:31:35.108Z,8.14
2022-11-13T03:32:35.078Z,8.13
2022-11-13T03:33:35.055Z,7.90
2022-11-13T03:34:35.032Z,7.93
2022-11-13T03:35:42.955Z,8.02
2022-11-13T03:36:34.975Z,7.99
2022-11-13T03:37:34.950Z,7.95
2022-11-13T03:38:34.921Z,7.99
2022-11-13T03:39:34.892Z,8.02
2022-11-13T03:40:34.862Z,7.99
2022-11-13T03:41:34.837Z,7.98
2022-11-13T03:42:34.808Z,8.05
2022-11-13T03:43:34.890Z,8.03
2022-11-13T03:44:34.756Z,7.95
2022-11-13T03:45:34.743Z,8.01
2022-11-13T03:46:34.698Z,8.05
2022-11-13T03:47:34.673Z,8.03
2022-11-13T03:48:34.648Z,7.98
2022-11-13T03:49:34.627Z,8.06
2022-11-13T03:50:34.592Z,7.96
2022-11-13T03:51:34.573Z,7.95
2022-11-13T03:52:34.537Z,7.93
2022-11-13T03:53:34.510Z,7.81
2022-11-13T03:54:34.489Z,7.74
2022-11-13T03:55:34.458Z,7.75
2022-11-13T03:56:34.433Z,7.75
2022-11-13T03:57:34.402Z,7.75
2022-11-13T03:58:38.502Z,7.75
2022-11-13T03:59:34.463Z,7.91
2022-11-13T04:00:34.326Z,7.96
2022-11-13T04:01:34.337Z,7.96
2022-11-13T04:02:34.271Z,7.96
2022-11-13T04:03:34.241Z,8.05
2022-11-13T04:04:34.217Z,8.11
2022-11-13T04:05:34.191Z,8.03
2022-11-13T04:06:34.167Z,8.02
2022-11-13T04:07:34.136Z,8.03
2022-11-13T04:08:34.112Z,8.18
2022-11-13T04:09:34.082Z,8.03
2022-11-13T04:10:34.057Z,7.99
2022-11-13T04:11:34.025Z,7.99
2022-11-13T04:12:34.002Z,7.98
2022-11-13T04:13:33.976Z,8.05
2022-11-13T04:14:33.947Z,7.99
2022-11-13T04:15:34.035Z,8.02
2022-11-13T04:16:33.894Z,8.03
2022-11-13T04:17:33.870Z,7.95
2022-11-13T04:18:33.841Z,8.01
2022-11-13T04:19:33.812Z,7.90
2022-11-13T04:20:33.787Z,7.90
2022-11-13T04:21:33.761Z,7.91
2022-11-13T04:22:33.733Z,8.02
2022-11-13T04:23:33.706Z,8.02
2022-11-13T04:24:33.681Z,7.95
2022-11-13T04:25:33.652Z,7.98
2022-11-13T04:26:33.628Z,7.95
2022-11-13T04:27:33.596Z,7.93
2022-11-13T04:28:33.578Z,7.95
2022-11-13T04:29:33.546Z,7.90
2022-11-13T04:30:33.516Z,7.98
2022-11-13T04:31:33.606Z,7.91
2022-11-13T04:32:33.462Z,8.02
2022-11-13T04:33:33.435Z,7.93
2022-11-13T04:34:33.411Z,7.90
2022-11-13T04:35:33.383Z,7.93
2022-11-13T04:36:33.355Z,7.91
2022-11-13T04:37:33.330Z,7.93
2022-11-13T04:38:33.301Z,7.93
2022-11-13T04:39:33.274Z,7.91
2022-11-13T04:40:33.248Z,8.01
2022-11-13T04:41:33.220Z,7.98
2022-11-13T04:42:33.192Z,7.99
2022-11-13T04:43:33.165Z,8.03
2022-11-13T04:44:33.142Z,8.05
2022-11-13T04:45:33.112Z,7.88
2022-11-13T04:46:33.086Z,8.01
2022-11-13T04:47:33.170Z,7.90
2022-11-13T04:48:33.031Z,7.99
2022-11-13T04:49:33.003Z,7.90
2022-11-13T04:50:32.977Z,7.93
2022-11-13T04:51:32.949Z,7.96
2022-11-13T04:52:32.926Z,7.91
2022-11-13T04:53:32.895Z,7.85
2022-11-13T04:54:32.870Z,7.88
2022-11-13T04:55:32.847Z,7.90
2022-11-13T04:56:32.815Z,7.90
2022-11-13T04:57:32.787Z,7.91
2022-11-13T04:58:32.761Z,7.91
2022-11-13T04:59:32.734Z,7.95
2022-11-13T05:00:32.706Z,7.84
2022-11-13T05:01:32.772Z,7.78
2022-11-13T05:02:32.654Z,7.77
2022-11-13T05:03:32.739Z,7.75
2022-11-13T05:04:32.602Z,7.78
2022-11-13T05:05:32.571Z,7.78
2022-11-13T05:06:32.548Z,7.77
2022-11-13T05:07:32.520Z,7.74
2022-11-13T05:08:32.492Z,7.80
2022-11-13T05:09:32.463Z,7.81
2022-11-13T05:10:32.436Z,7.90
2022-11-13T05:11:32.408Z,7.95
2022-11-13T05:12:32.385Z,7.75
2022-11-13T05:13:32.357Z,7.77
2022-11-13T05:14:32.326Z,7.74
2022-11-13T05:15:32.299Z,7.77
2022-11-13T05:16:32.273Z,7.83
2022-11-13T05:17:32.246Z,7.78
2022-11-13T05:18:32.220Z,7.66
2022-11-13T05:19:32.300Z,7.62
2022-11-13T05:20:32.166Z,7.50
2022-11-13T05:21:32.140Z,7.43
2022-11-13T05:22:32.114Z,7.44
2022-11-13T05:23:32.085Z,7.44
2022-11-13T05:24:32.057Z,7.53
2022-11-13T05:25:32.030Z,7.66
2022-11-13T05:26:32.006Z,7.62
2022-11-13T05:27:31.974Z,7.55
2022-11-13T05:28:31.949Z,7.67
2022-11-13T05:29:31.923Z,7.66
2022-11-13T05:30:31.895Z,7.56
2022-11-13T05:31:31.865Z,7.47
2022-11-13T05:32:31.845Z,7.50
2022-11-13T05:33:31.813Z,7.50
2022-11-13T05:34:31.794Z,7.66
2022-11-13T05:35:31.870Z,7.62
2022-11-13T05:37:31.707Z,7.66
2022-11-13T05:38:31.858Z,7.53
2022-11-13T05:39:31.650Z,7.61
2022-11-13T05:40:31.621Z,7.66
2022-11-13T05:41:31.596Z,7.67
2022-11-13T05:42:31.566Z,7.77
2022-11-13T05:43:31.540Z,7.74
2022-11-13T05:44:31.514Z,7.70
2022-11-13T05:45:31.486Z,7.74
2022-11-13T05:46:31.457Z,7.72
2022-11-13T05:47:31.433Z,7.70
2022-11-13T05:48:31.675Z,7.74
2022-11-13T05:49:31.377Z,7.62
2022-11-13T05:50:31.347Z,7.59
2022-11-13T05:51:31.431Z,7.70
2022-11-13T05:52:31.293Z,7.67
2022-11-13T05:53:31.269Z,7.70
2022-11-13T05:54:31.238Z,7.70
2022-11-13T05:55:31.214Z,7.56
2022-11-13T05:56:31.184Z,7.51
2022-11-13T05:57:31.160Z,7.43
2022-11-13T05:58:31.449Z,7.46
2022-11-13T05:59:31.105Z,7.51
2022-11-13T06:00:31.077Z,7.53
2022-11-13T06:01:31.169Z,7.46
2022-11-13T06:02:31.019Z,7.51
2022-11-13T06:03:30.994Z,7.48
2022-11-13T06:04:30.966Z,7.44
2022-11-13T06:05:30.943Z,7.31
2022-11-13T06:06:30.916Z,7.28
2022-11-13T06:07:30.998Z,7.23
2022-11-13T06:08:31.125Z,7.14
2022-11-13T06:09:30.836Z,7.18
2022-11-13T06:10:30.802Z,7.10
2022-11-13T06:11:30.777Z,7.14
2022-11-13T06:12:30.750Z,7.19
2022-11-13T06:13:30.725Z,7.28
2022-11-13T06:14:30.695Z,7.37
2022-11-13T06:15:30.668Z,7.29
2022-11-13T06:16:30.644Z,7.44
2022-11-13T06:17:30.616Z,7.31
2022-11-13T06:18:30.807Z,7.25
2022-11-13T06:19:30.564Z,7.22
2022-11-13T06:20:30.534Z,7.10
2022-11-13T06:21:30.525Z,7.00
2022-11-13T06:22:30.476Z,7.00
2022-11-13T06:23:30.577Z,7.01
2022-11-13T06:24:30.421Z,6.97
2022-11-13T06:25:30.396Z,6.87
2022-11-13T06:26:30.367Z,6.87
2022-11-13T06:27:30.343Z,6.74
2022-11-13T06:28:30.815Z,6.86
2022-11-13T06:29:30.288Z,7.00
2022-11-13T06:30:30.257Z,7.03
2022-11-13T06:31:30.231Z,7.07
2022-11-13T06:32:30.205Z,7.15
2022-11-13T06:33:30.178Z,7.14
2022-11-13T06:34:30.148Z,7.19
2022-11-13T06:35:30.122Z,7.08
2022-11-13T06:36:30.096Z,7.14
2022-11-13T06:37:33.759Z,7.14
2022-11-13T06:38:30.438Z,7.25
2022-11-13T06:39:30.130Z,7.23
2022-11-13T06:40:29.988Z,7.37
2022-11-13T06:41:29.960Z,7.23
2022-11-13T06:42:29.932Z,7.13
2022-11-13T06:43:29.909Z,7.05
2022-11-13T06:44:29.875Z,6.96
2022-11-13T06:45:29.895Z,6.97
2022-11-13T06:46:29.819Z,6.92
2022-11-13T06:47:29.795Z,6.77
2022-11-13T06:48:30.093Z,6.75
2022-11-13T06:49:29.743Z,6.78
2022-11-13T06:50:29.710Z,6.70
2022-11-13T06:51:29.684Z,6.74
2022-11-13T06:52:29.658Z,6.82
2022-11-13T06:53:29.634Z,6.80
2022-11-13T06:54:29.602Z,6.77
2022-11-13T06:55:29.743Z,6.77
2022-11-13T06:56:29.548Z,6.74
2022-11-13T06:57:29.524Z,6.74
2022-11-13T06:58:29.892Z,6.72
2022-11-13T06:59:29.471Z,6.67
2022-11-13T07:00:35.247Z,6.77
2022-11-13T07:01:29.503Z,6.77
2022-11-13T07:02:29.384Z,6.77
2022-11-13T07:03:29.358Z,6.65
2022-11-13T07:04:29.330Z,6.80
2022-11-13T07:05:29.303Z,6.89
2022-11-13T07:06:29.275Z,6.96
2022-11-13T07:07:29.298Z,7.05
2022-11-13T07:08:29.541Z,7.13
2022-11-13T07:09:29.193Z,7.08
2022-11-13T07:10:29.247Z,7.08
2022-11-13T07:11:29.254Z,6.95
2022-11-13T07:12:29.115Z,6.92
2022-11-13T07:13:29.083Z,6.82
2022-11-13T07:14:29.057Z,6.78
2022-11-13T07:15:29.029Z,6.64
2022-11-13T07:16:44.158Z,6.65
2022-11-13T07:17:28.976Z,6.67
2022-11-13T07:18:29.332Z,6.57
2022-11-13T07:19:28.919Z,6.68
2022-11-13T07:20:28.895Z,6.53
2022-11-13T07:21:28.865Z,6.56
2022-11-13T07:22:28.836Z,6.56
2022-11-13T07:23:28.809Z,6.74
2022-11-13T07:24:28.781Z,6.80
2022-11-13T07:25:28.757Z,6.89
2022-11-13T07:26:28.724Z,6.96
2022-11-13T07:27:28.812Z,7.00
2022-11-13T07:28:28.957Z,7.04
2022-11-13T07:29:28.648Z,7.11
2022-11-13T07:30:28.618Z,7.15
2022-11-13T07:31:28.589Z,7.21
2022-11-13T07:32:28.563Z,7.25
2022-11-13T07:33:28.537Z,7.25
2022-11-13T07:34:28.506Z,7.23
2022-11-13T07:35:28.482Z,7.31
2022-11-13T07:36:28.453Z,7.26
2022-11-13T07:37:28.426Z,7.26
2022-11-13T07:38:28.815Z,7.29
2022-11-13T07:39:28.376Z,7.31
2022-11-13T07:40:28.348Z,7.33
2022-11-13T07:41:28.316Z,7.37
2022-11-13T07:42:28.286Z,7.26
2022-11-13T07:43:28.375Z,7.39
2022-11-13T07:44:53.025Z,7.47
2022-11-13T07:45:28.208Z,7.44
2022-11-13T07:46:28.177Z,7.47
2022-11-13T07:47:28.150Z,7.48
2022-11-13T07:48:28.588Z,7.50
2022-11-13T07:49:28.099Z,7.50
2022-11-13T07:50:28.066Z,7.47
2022-11-13T07:51:28.040Z,7.48
2022-11-13T07:52:28.012Z,7.47
2022-11-13T07:53:27.990Z,7.47
2022-11-13T07:54:27.955Z,7.50
2022-11-13T07:55:27.930Z,7.46
2022-11-13T07:56:27.905Z,7.36
2022-11-13T07:57:27.879Z,7.39
2022-11-13T07:58:28.229Z,7.32
2022-11-13T07:59:28.040Z,7.36
2022-11-13T08:00:27.803Z,7.47
2022-11-13T08:01:27.841Z,7.46
2022-11-13T08:02:27.735Z,7.46
2022-11-13T08:03:27.713Z,7.55
2022-11-13T08:04:27.683Z,7.51
2022-11-13T08:05:27.657Z,7.61
2022-11-13T08:06:27.627Z,7.67
2022-11-13T08:07:27.598Z,7.62
2022-11-13T08:08:27.997Z,7.69
2022-11-13T08:09:27.546Z,7.67
2022-11-13T08:10:27.559Z,7.67
2022-11-13T08:11:27.489Z,7.61
2022-11-13T08:12:27.465Z,7.67
2022-11-13T08:13:27.435Z,7.75
2022-11-13T08:14:27.410Z,7.70
2022-11-13T08:15:27.491Z,7.67
2022-11-13T08:16:27.355Z,7.77
2022-11-13T08:17:27.329Z,7.77
2022-11-13T08:18:27.773Z,7.75
2022-11-13T08:19:27.271Z,7.74
2022-11-13T08:20:27.315Z,7.74
2022-11-13T08:21:27.216Z,7.80
2022-11-13T08:22:27.262Z,7.83
2022-11-13T08:23:27.164Z,7.78
2022-11-13T08:24:27.136Z,7.80
2022-11-13T08:25:27.113Z,7.77
2022-11-13T08:26:27.083Z,7.90
2022-11-13T08:27:27.050Z,7.88
2022-11-13T08:28:27.343Z,7.91
2022-11-13T08:29:26.998Z,7.96
2022-11-13T08:30:27.008Z,7.90
2022-11-13T08:31:27.061Z,7.95
2022-11-13T08:32:26.917Z,7.91
2022-11-13T08:33:26.891Z,7.93
2022-11-13T08:34:26.864Z,8.01
2022-11-13T08:35:29.598Z,7.99
2022-11-13T08:36:26.807Z,8.13
2022-11-13T08:37:26.779Z,8.06
2022-11-13T08:38:27.007Z,8.16
2022-11-13T08:39:26.730Z,8.18
2022-11-13T08:40:26.772Z,8.09
2022-11-13T08:41:26.673Z,8.20
2022-11-13T08:42:26.649Z,8.20
2022-11-13T08:43:26.615Z,8.21
2022-11-13T08:44:26.694Z,8.31
2022-11-13T08:45:26.565Z,8.36
2022-11-13T08:46:26.545Z,8.44
2022-11-13T08:47:29.457Z,8.54
2022-11-13T08:48:26.768Z,8.60
2022-11-13T08:49:26.455Z,8.61
2022-11-13T08:50:26.435Z,8.63
2022-11-13T08:51:26.402Z,8.72
2022-11-13T08:52:26.378Z,8.77
2022-11-13T08:53:26.350Z,8.86
2022-11-13T08:54:26.323Z,8.89
2022-11-13T08:55:26.295Z,8.89
2022-11-13T08:56:26.268Z,8.90
2022-11-13T08:57:26.245Z,9.00
2022-11-13T08:58:26.599Z,8.95
2022-11-13T08:59:26.188Z,9.08
2022-11-13T09:00:26.205Z,9.11
2022-11-13T09:01:26.135Z,9.13
2022-11-13T09:02:26.109Z,9.16
2022-11-13T09:03:26.267Z,9.30
2022-11-13T09:04:26.060Z,9.36
2022-11-13T09:05:26.035Z,9.45
2022-11-13T09:06:26.011Z,9.54
2022-11-13T09:07:27.532Z,9.47
2022-11-13T09:08:26.193Z,9.55
2022-11-13T09:09:25.923Z,9.56
2022-11-13T09:10:25.898Z,9.66
2022-11-13T09:11:25.871Z,9.56
2022-11-13T09:12:25.848Z,9.72
2022-11-13T09:13:25.824Z,9.85
2022-11-13T09:14:25.793Z,9.97
2022-11-13T09:15:25.767Z,10.10
2022-11-13T09:16:25.740Z,10.17
2022-11-13T09:17:25.713Z,10.42
2022-11-13T09:18:26.026Z,10.57
2022-11-13T09:19:25.775Z,10.92
2022-11-13T09:20:25.634Z,11.20
2022-11-13T09:21:25.608Z,11.53
2022-11-13T09:22:25.582Z,11.78
2022-11-13T09:23:25.559Z,11.89
2022-11-13T09:24:25.534Z,12.15
2022-11-13T09:25:25.505Z,12.26
2022-11-13T09:26:25.482Z,12.36
2022-11-13T09:27:25.455Z,12.48
2022-11-13T09:28:25.541Z,12.51
2022-11-13T09:29:25.404Z,12.72
2022-11-13T09:30:25.379Z,12.90
2022-11-13T09:31:25.355Z,13.05
2022-11-13T09:32:25.330Z,13.17
2022-11-13T09:33:25.307Z,13.40
2022-11-13T09:34:25.283Z,13.55
2022-11-13T09:35:25.366Z,13.85
2022-11-13T09:36:25.232Z,13.85
2022-11-13T09:37:25.205Z,13.86
2022-11-13T09:38:25.289Z,14.08
2022-11-13T09:39:25.156Z,14.37
2022-11-13T09:40:25.141Z,14.58
2022-11-13T09:41:25.107Z,14.85
2022-11-13T09:42:25.084Z,15.04
2022-11-13T09:43:25.060Z,15.15
2022-11-13T09:44:25.036Z,15.23
2022-11-13T09:45:25.011Z,15.37
2022-11-13T09:46:24.987Z,15.55
2022-11-13T09:47:24.962Z,15.63
2022-11-13T09:48:25.034Z,15.50
2022-11-13T09:49:24.918Z,15.43
2022-11-13T09:50:24.893Z,15.47
2022-11-13T09:51:24.982Z,15.39
2022-11-13T09:52:24.848Z,15.41
2022-11-13T09:53:24.823Z,15.43
2022-11-13T09:54:24.801Z,15.66
2022-11-13T09:55:24.776Z,15.84
2022-11-13T09:56:24.770Z,16.05
2022-11-13T09:57:26.539Z,15.99
2022-11-13T09:58:24.713Z,15.92
2022-11-13T09:59:24.684Z,15.92
2022-11-13T10:00:24.664Z,16.03
2022-11-13T10:01:24.740Z,16.12
2022-11-13T10:02:24.620Z,16.28
2022-11-13T10:03:59.810Z,16.32
2022-11-13T10:04:24.574Z,16.39
2022-11-13T10:05:24.550Z,16.36
2022-11-13T10:06:24.530Z,16.32
2022-11-13T10:07:24.684Z,16.37
2022-11-13T10:08:24.488Z,16.28
2022-11-13T10:09:24.464Z,16.10
2022-11-13T10:10:24.442Z,15.94
2022-11-13T10:11:24.420Z,16.00
2022-11-13T10:12:24.401Z,16.02
2022-11-13T10:13:24.377Z,15.99
2022-11-13T10:14:24.357Z,16.06
2022-11-13T10:15:24.332Z,16.06
2022-11-13T10:16:24.315Z,15.96
2022-11-13T10:17:24.292Z,16.05
2022-11-13T10:18:24.270Z,16.16
2022-11-13T10:19:24.250Z,16.18
2022-11-13T10:20:24.226Z,15.98
2022-11-13T10:21:24.203Z,15.88
2022-11-13T10:22:33.380Z,15.83
2022-11-13T10:23:24.271Z,15.60
2022-11-13T10:24:24.142Z,15.63
2022-11-13T10:25:24.123Z,15.63
2022-11-13T10:26:24.098Z,15.63
2022-11-13T10:27:24.077Z,15.57
2022-11-13T10:28:51.694Z,15.57
2022-11-13T10:29:24.034Z,15.59
2022-11-13T10:30:24.015Z,15.37
2022-11-13T10:31:23.995Z,15.41
2022-11-13T10:32:23.972Z,15.37
2022-11-13T10:33:23.956Z,15.45
2022-11-13T10:34:23.933Z,15.60
2022-11-13T10:35:23.908Z,15.72
2022-11-13T10:36:23.890Z,15.70
2022-11-13T10:37:23.868Z,15.76
2022-11-13T10:38:23.848Z,15.80
2022-11-13T10:39:23.941Z,15.70
2022-11-13T10:40:23.808Z,15.88
2022-11-13T10:41:23.788Z,15.88
2022-11-13T10:42:23.768Z,15.94
2022-11-13T10:43:23.743Z,15.94
2022-11-13T10:44:23.725Z,15.88
2022-11-13T10:45:23.705Z,15.78
2022-11-13T10:46:23.684Z,15.78
2022-11-13T10:47:49.158Z,15.73
2022-11-13T10:48:23.643Z,15.75
2022-11-13T10:49:23.624Z,15.76
2022-11-13T10:50:23.604Z,15.84
2022-11-13T10:51:23.583Z,16.03
2022-11-13T10:52:23.565Z,15.99
2022-11-13T10:53:23.543Z,16.06
2022-11-13T10:54:23.521Z,16.17
2022-11-13T10:55:23.612Z,16.25
2022-11-13T10:56:23.482Z,16.46
2022-11-13T10:57:23.464Z,16.72
2022-11-13T10:58:23.439Z,16.80
2022-11-13T10:59:23.419Z,16.87
2022-11-13T11:00:23.404Z,16.73
2022-11-13T11:01:23.422Z,16.50
2022-11-13T11:02:23.365Z,16.46
2022-11-13T11:03:23.341Z,16.34
2022-11-13T11:04:23.354Z,16.18
2022-11-13T11:05:23.296Z,16.10
2022-11-13T11:06:32.102Z,16.02
2022-11-13T11:07:23.376Z,15.96
2022-11-13T11:08:23.240Z,15.87
2022-11-13T11:09:23.217Z,15.85
2022-11-13T11:10:23.197Z,15.85
2022-11-13T11:11:23.288Z,15.80
2022-11-13T11:12:29.057Z,15.78
2022-11-13T11:13:23.138Z,15.57
2022-11-13T11:14:23.114Z,15.63
2022-11-13T11:15:23.093Z,15.55
2022-11-13T11:16:23.072Z,15.52
2022-11-13T11:17:23.052Z,15.50
2022-11-13T11:18:23.033Z,15.41
2022-11-13T11:19:23.008Z,15.29
2022-11-13T11:20:22.991Z,15.26
2022-11-13T11:21:22.965Z,15.17
2022-11-13T11:22:22.956Z,15.17
2022-11-13T11:23:22.929Z,15.25
2022-11-13T11:24:22.911Z,15.23
2022-11-13T11:25:22.885Z,15.18
2022-11-13T11:26:22.869Z,15.18
2022-11-13T11:27:22.959Z,15.14
2022-11-13T11:28:22.819Z,15.17
2022-11-13T11:29:22.800Z,15.10
2022-11-13T11:30:22.787Z,15.15
2022-11-13T11:31:22.872Z,15.07
2022-11-13T11:32:22.738Z,15.10
2022-11-13T11:33:22.714Z,15.14
2022-11-13T11:34:22.750Z,15.10
2022-11-13T11:35:22.672Z,15.04
2022-11-13T11:36:22.652Z,15.04
2022-11-13T11:37:22.648Z,15.17
2022-11-13T11:38:22.632Z,15.07
2022-11-13T11:39:22.647Z,15.05
2022-11-13T11:40:22.574Z,15.00
2022-11-13T11:41:22.593Z,15.04
2022-11-13T11:42:22.543Z,14.99
2022-11-13T11:43:22.616Z,14.89
2022-11-13T11:44:22.564Z,14.73
2022-11-13T11:45:22.459Z,14.71
2022-11-13T11:46:22.433Z,14.59
2022-11-13T11:47:22.415Z,14.52
2022-11-13T11:48:22.393Z,14.53
2022-11-13T11:49:22.373Z,14.44
2022-11-13T11:50:22.347Z,14.48
2022-11-13T11:51:22.325Z,14.33
2022-11-13T11:52:22.304Z,14.44
2022-11-13T11:53:22.283Z,14.44
2022-11-13T11:54:22.261Z,14.55
2022-11-13T11:55:22.239Z,14.53
2022-11-13T11:56:22.218Z,14.44
2022-11-13T11:57:22.195Z,14.51
2022-11-13T11:58:22.178Z,14.51
2022-11-13T11:59:22.366Z,14.45
2022-11-13T12:00:22.133Z,14.52
2022-11-13T12:01:22.106Z,14.48
2022-11-13T12:02:22.090Z,14.53
2022-11-13T12:03:22.062Z,14.55
2022-11-13T12:04:22.043Z,14.58
2022-11-13T12:05:22.144Z,14.55
2022-11-13T12:06:22.001Z,14.58
2022-11-13T12:07:22.093Z,14.70
2022-11-13T12:08:22.159Z,14.77
2022-11-13T12:09:21.936Z,14.81
2022-11-13T12:10:21.912Z,14.85
2022-11-13T12:11:21.891Z,14.70
2022-11-13T12:12:21.873Z,14.85
2022-11-13T12:13:21.844Z,14.74
2022-11-13T12:14:21.824Z,14.90
2022-11-13T12:15:21.914Z,14.94
2022-11-13T12:16:25.092Z,14.99
2022-11-13T12:17:21.773Z,14.97
2022-11-13T12:18:21.741Z,15.02
2022-11-13T12:19:21.714Z,15.00
2022-11-13T12:20:21.692Z,15.00
2022-11-13T12:21:21.669Z,14.93
2022-11-13T12:22:21.648Z,14.78
2022-11-13T12:23:21.630Z,14.77
2022-11-13T12:24:21.605Z,14.67
2022-11-13T12:25:21.581Z,14.59
2022-11-13T12:26:21.561Z,14.70
2022-11-13T12:27:21.939Z,14.59
2022-11-13T12:28:21.516Z,14.66
2022-11-13T12:29:21.500Z,14.62
2022-11-13T12:30:21.477Z,14.63
2022-11-13T12:31:21.563Z,14.70
2022-11-13T12:32:21.431Z,14.82
2022-11-13T12:33:21.410Z,14.92
2022-11-13T12:34:21.388Z,15.04
2022-11-13T12:35:21.365Z,15.18
2022-11-13T12:36:21.343Z,15.27
2022-11-13T12:37:21.319Z,15.37
2022-11-13T12:38:21.297Z,15.27
2022-11-13T12:39:21.274Z,15.27
2022-11-13T12:40:21.253Z,15.26
2022-11-13T12:41:21.234Z,15.19
2022-11-13T12:42:21.215Z,15.33
2022-11-13T12:43:21.194Z,15.29
2022-11-13T12:44:21.165Z,15.44
2022-11-13T12:45:21.144Z,15.54
2022-11-13T12:46:21.121Z,15.62
2022-11-13T12:47:21.211Z,15.62
2022-11-13T12:48:21.077Z,15.59
2022-11-13T12:49:21.062Z,15.57
2022-11-13T12:50:21.033Z,15.44
2022-11-13T12:51:21.038Z,15.51
2022-11-13T12:52:20.990Z,15.47
2022-11-13T12:53:20.969Z,15.44
2022-11-13T12:54:20.949Z,15.37
2022-11-13T12:55:20.930Z,15.51
2022-11-13T12:56:20.903Z,15.43
2022-11-13T12:57:22.641Z,15.41
2022-11-13T12:58:20.858Z,15.32
2022-11-13T12:59:36.392Z,15.18
2022-11-13T13:00:20.814Z,15.19
2022-11-13T13:01:20.845Z,15.07
2022-11-13T13:02:20.772Z,15.15
2022-11-13T13:03:20.867Z,15.11
2022-11-13T13:04:20.730Z,15.17
2022-11-13T13:05:20.707Z,15.00
2022-11-13T13:06:20.686Z,15.05
2022-11-13T13:07:20.724Z,15.18
2022-11-13T13:08:20.643Z,15.02
2022-11-13T13:09:20.620Z,15.05
2022-11-13T13:10:20.596Z,15.00
2022-11-13T13:11:20.576Z,15.05
2022-11-13T13:12:20.554Z,15.11